Time;durP1;ratioP1;P1;durP2;ratioP2;P2;SDS_P1;SDS_P2;PMS_P1;PMS_P2;Temp;Humidity;BMP_temperature;BMP_pressure;BME280_temperature;BME280_humidity;BME280_pressure;Samples;Min_cycle;Max_cycle;Signal;HPM_P1;HPM_P2
2023/06/28 00:00:18;;;;;;;1.83;0.70;;;15.90;99.90;;;;;;5014937;28;20068;-59
2023/06/28 00:02:44;;;;;;;2.25;1.15;;;15.90;99.90;;;;;;5014544;28;20061;-63
2023/06/28 00:05:12;;;;;;;1.02;0.68;;;15.80;99.90;;;;;;5014882;28;20547;-59
2023/06/28 00:07:38;;;;;;;3.38;1.15;;;15.80;99.90;;;;;;5014841;28;20386;-62
2023/06/28 00:10:04;;;;;;;1.02;0.80;;;15.80;99.90;;;;;;5014541;28;20022;-59
2023/06/28 00:12:31;;;;;;;4.35;1.15;;;15.90;99.90;;;;;;5012073;28;20114;-60
2023/06/28 00:14:58;;;;;;;1.67;0.85;;;15.80;99.90;;;;;;5013308;28;20105;-59
2023/06/28 00:17:27;;;;;;;2.92;1.48;;;15.90;99.90;;;;;;5013441;28;20490;-60
2023/06/28 00:19:58;;;;;;;1.75;0.80;;;15.80;99.90;;;;;;5014595;28;20053;-59
2023/06/28 00:22:29;;;;;;;4.53;1.00;;;15.90;99.90;;;;;;5014530;28;20065;-59
2023/06/28 00:24:56;;;;;;;2.38;1.27;;;15.90;99.90;;;;;;5013064;28;20033;-59
2023/06/28 00:27:22;;;;;;;3.13;1.17;;;15.90;99.90;;;;;;5014834;28;20101;-59
2023/06/28 00:29:47;;;;;;;4.72;1.17;;;15.90;99.90;;;;;;5014337;28;20030;-59
2023/06/28 00:32:13;;;;;;;4.85;1.00;;;16.00;99.90;;;;;;5014394;28;20408;-60
2023/06/28 00:34:39;;;;;;;2.15;0.93;;;16.00;99.90;;;;;;5014336;28;20496;-59
2023/06/28 00:37:04;;;;;;;3.72;1.02;;;16.10;99.90;;;;;;5014331;28;20030;-59
2023/06/28 00:39:31;;;;;;;3.35;1.20;;;16.10;99.90;;;;;;5014536;28;20474;-59
2023/06/28 00:41:56;;;;;;;1.73;1.00;;;16.10;99.90;;;;;;5014402;28;20084;-59
2023/06/28 00:44:22;;;;;;;0.82;0.60;;;16.10;99.90;;;;;;5014487;28;20029;-60
2023/06/28 00:46:48;;;;;;;3.92;1.48;;;16.20;99.90;;;;;;5033855;28;20094;-60
2023/06/28 00:49:15;;;;;;;2.47;1.00;;;16.20;99.90;;;;;;5033840;28;20045;-60
2023/06/28 00:51:41;;;;;;;1.50;0.88;;;16.20;99.90;;;;;;5032976;28;20029;-59
2023/06/28 00:54:07;;;;;;;2.55;1.20;;;16.30;99.90;;;;;;5014047;28;20022;-59
2023/06/28 00:56:34;;;;;;;3.33;1.17;;;16.30;99.90;;;;;;5014214;28;20033;-61
2023/06/28 00:59:01;;;;;;;1.60;0.95;;;16.40;99.90;;;;;;5013933;28;20029;-59
2023/06/28 01:01:26;;;;;;;4.78;0.85;;;16.40;99.90;;;;;;5013717;28;20106;-60
2023/06/28 01:03:53;;;;;;;2.97;0.70;;;16.40;99.90;;;;;;5013357;28;20104;-59
2023/06/28 01:06:21;;;;;;;1.77;0.80;;;16.40;99.90;;;;;;5013184;28;20025;-59
2023/06/28 01:08:46;;;;;;;4.38;1.05;;;16.40;99.90;;;;;;5013686;28;20026;-59
2023/06/28 01:11:12;;;;;;;1.30;0.90;;;16.40;99.90;;;;;;5013572;28;20026;-60
2023/06/28 01:13:39;;;;;;;4.95;1.42;;;16.40;99.90;;;;;;5013343;28;20049;-60
2023/06/28 01:16:05;;;;;;;2.37;1.40;;;16.40;99.90;;;;;;5013431;28;20018;-60
2023/06/28 01:18:33;;;;;;;1.55;1.08;;;16.40;99.90;;;;;;5013414;28;20134;-58
2023/06/28 01:21:05;;;;;;;1.13;0.80;;;16.40;99.90;;;;;;5013462;28;20033;-60
2023/06/28 01:23:31;;;;;;;2.63;1.25;;;16.40;99.90;;;;;;5013454;28;20088;-60
2023/06/28 01:26:02;;;;;;;2.47;0.98;;;16.40;99.90;;;;;;5011519;28;20026;-59
2023/06/28 01:28:29;;;;;;;3.28;1.60;;;16.40;99.90;;;;;;5029125;28;20087;-60
2023/06/28 01:30:56;;;;;;;2.55;1.20;;;16.40;99.90;;;;;;5020830;28;20026;-59
2023/06/28 01:33:21;;;;;;;1.75;0.90;;;16.40;99.90;;;;;;5013405;28;20382;-60
2023/06/28 01:35:47;;;;;;;3.35;0.73;;;16.40;99.90;;;;;;5018773;28;20030;-60
2023/06/28 01:38:13;;;;;;;2.85;0.93;;;16.50;99.90;;;;;;5033267;28;20060;-61
2023/06/28 01:40:41;;;;;;;4.57;1.27;;;16.50;99.90;;;;;;5013243;28;20390;-59
2023/06/28 01:43:07;;;;;;;6.65;0.90;;;16.50;99.90;;;;;;5013254;28;20033;-59
2023/06/28 01:45:34;;;;;;;2.28;1.02;;;16.50;99.90;;;;;;5015636;28;20164;-60
2023/06/28 01:48:00;;;;;;;4.95;0.73;;;16.60;99.90;;;;;;5012993;28;20478;-62
2023/06/28 01:50:27;;;;;;;1.67;1.00;;;16.60;99.90;;;;;;5012996;28;20099;-59
2023/06/28 01:53:00;;;;;;;5.65;1.20;;;16.50;99.90;;;;;;5013372;28;20490;-60
2023/06/28 01:55:26;;;;;;;2.08;1.08;;;16.50;99.90;;;;;;5012989;28;20021;-60
2023/06/28 01:57:51;;;;;;;3.47;1.05;;;16.50;99.90;;;;;;5029416;28;20478;-60
2023/06/28 02:00:17;;;;;;;2.95;0.88;;;16.50;99.90;;;;;;5032321;28;20041;-60
2023/06/28 02:02:43;;;;;;;3.88;0.82;;;16.50;99.90;;;;;;5022030;28;20106;-60
2023/06/28 02:05:09;;;;;;;2.38;1.08;;;16.50;99.90;;;;;;5025251;28;20068;-59
2023/06/28 02:07:35;;;;;;;1.45;1.08;;;16.40;99.90;;;;;;5032956;28;20057;-60
2023/06/28 02:10:01;;;;;;;2.53;1.08;;;16.40;99.90;;;;;;5013487;28;20565;-59
2023/06/28 02:12:26;;;;;;;2.97;1.50;;;16.40;99.90;;;;;;5012888;28;20030;-59
2023/06/28 02:14:52;;;;;;;4.88;1.40;;;16.40;99.90;;;;;;5012863;28;20389;-59
2023/06/28 02:17:21;;;;;;;1.35;0.80;;;16.30;99.90;;;;;;5012661;28;20109;-59
2023/06/28 02:19:48;;;;;;;2.55;1.48;;;16.40;99.90;;;;;;5013074;28;20097;-58
2023/06/28 02:22:14;;;;;;;4.57;1.05;;;16.30;99.90;;;;;;5017320;28;20026;-58
2023/06/28 02:24:40;;;;;;;2.33;1.13;;;16.30;99.90;;;;;;5012763;28;20029;-61
2023/06/28 02:27:08;;;;;;;2.25;1.30;;;16.30;99.90;;;;;;5016521;28;20466;-59
2023/06/28 02:29:34;;;;;;;1.55;1.10;;;16.20;99.90;;;;;;5016008;28;20030;-58
2023/06/28 02:31:59;;;;;;;4.65;1.38;;;16.20;99.90;;;;;;5032366;28;20517;-58
2023/06/28 02:34:25;;;;;;;1.30;1.20;;;16.20;99.90;;;;;;5033747;28;20021;-61
2023/06/28 02:36:51;;;;;;;3.45;1.42;;;16.10;99.90;;;;;;5016537;28;20474;-58
2023/06/28 02:39:16;;;;;;;1.23;1.10;;;16.10;99.90;;;;;;5028272;28;20043;-58
2023/06/28 02:41:42;;;;;;;2.42;1.27;;;16.10;99.90;;;;;;5016705;28;20037;-58
2023/06/28 02:44:07;;;;;;;3.10;1.17;;;16.00;99.90;;;;;;5035538;28;20469;-57
2023/06/28 02:46:33;;;;;;;3.75;1.13;;;16.10;99.90;;;;;;5014469;28;20034;-57
2023/06/28 02:48:59;;;;;;;5.50;1.60;;;16.10;99.90;;;;;;5020304;28;20026;-57
2023/06/28 02:51:24;;;;;;;6.07;1.88;;;16.00;99.90;;;;;;5019060;28;20108;-57
2023/06/28 02:53:50;;;;;;;1.75;1.35;;;16.00;99.90;;;;;;5014444;28;20386;-57
2023/06/28 02:56:16;;;;;;;2.45;1.20;;;16.00;99.90;;;;;;5019661;28;20030;-57
2023/06/28 02:58:42;;;;;;;3.75;1.20;;;16.00;99.90;;;;;;5016356;28;20014;-57
2023/06/28 03:01:09;;;;;;;1.60;1.50;;;16.00;99.90;;;;;;5031910;28;20022;-57
2023/06/28 03:03:38;;;;;;;3.58;1.20;;;15.90;99.90;;;;;;5016983;28;20025;-56
2023/06/28 03:06:05;;;;;;;3.58;1.33;;;15.90;99.90;;;;;;5035833;28;20033;-57
2023/06/28 03:08:31;;;;;;;4.53;1.73;;;15.90;99.90;;;;;;5027923;28;20101;-57
2023/06/28 03:10:56;;;;;;;2.38;1.90;;;15.90;99.90;;;;;;5015859;28;20574;-57
2023/06/28 03:13:22;;;;;;;4.43;2.05;;;15.90;99.90;;;;;;5026289;28;20021;-57
2023/06/28 03:15:47;;;;;;;2.30;1.45;;;15.90;99.90;;;;;;5035607;28;20022;-57
2023/06/28 03:18:13;;;;;;;5.80;1.73;;;15.90;99.90;;;;;;5035511;28;20048;-58
2023/06/28 03:20:39;;;;;;;1.85;1.45;;;15.90;99.90;;;;;;5017525;28;20105;-57
2023/06/28 03:23:04;;;;;;;5.15;2.00;;;15.90;99.90;;;;;;5013881;28;20103;-57
2023/06/28 03:25:30;;;;;;;7.35;2.03;;;15.90;99.90;;;;;;5015640;28;20037;-57
2023/06/28 03:27:56;;;;;;;9.38;2.00;;;16.00;99.90;;;;;;5014385;28;20041;-57
2023/06/28 03:30:22;;;;;;;5.03;2.33;;;15.90;99.90;;;;;;5014706;28;21409;-57
2023/06/28 03:32:48;;;;;;;8.70;2.13;;;15.90;99.90;;;;;;5015393;28;20026;-57
2023/06/28 03:35:14;;;;;;;4.45;2.55;;;15.90;99.90;;;;;;5013939;28;20021;-56
2023/06/28 03:37:51;;;;;;;2.28;1.77;;;15.90;99.90;;;;;;5022933;28;20014;-56
2023/06/28 03:40:17;;;;;;;4.32;1.95;;;15.90;99.90;;;;;;5028852;28;20104;-56
2023/06/28 03:42:42;;;;;;;6.90;2.33;;;16.00;99.90;;;;;;5014003;28;20558;-56
2023/06/28 03:45:08;;;;;;;7.35;2.42;;;15.90;99.90;;;;;;5015323;28;20092;-56
2023/06/28 03:47:34;;;;;;;10.20;2.80;;;15.90;99.90;;;;;;5015029;28;20037;-56
2023/06/28 03:50:00;;;;;;;9.10;2.83;;;15.90;99.90;;;;;;5015279;28;20032;-56
2023/06/28 03:52:25;;;;;;;5.20;2.38;;;16.00;99.90;;;;;;5013332;28;20387;-57
2023/06/28 03:54:52;;;;;;;7.38;2.40;;;16.00;99.90;;;;;;5028266;28;20010;-55
2023/06/28 03:57:18;;;;;;;2.88;2.17;;;16.00;99.90;;;;;;5034624;28;20030;-56
2023/06/28 03:59:43;;;;;;;4.32;2.60;;;16.00;99.90;;;;;;5014955;28;20084;-53
2023/06/28 04:02:09;;;;;;;8.20;3.05;;;16.00;99.90;;;;;;5015014;28;20026;-55
2023/06/28 04:04:34;;;;;;;8.20;2.50;;;15.90;99.90;;;;;;5014812;28;20051;-58
2023/06/28 04:07:03;;;;;;;4.57;2.75;;;16.00;99.90;;;;;;5014833;28;20054;-56
2023/06/28 04:09:29;;;;;;;5.50;2.40;;;16.00;99.90;;;;;;5013696;28;20026;-55
2023/06/28 04:11:55;;;;;;;3.97;2.60;;;16.00;99.90;;;;;;5034712;28;20114;-55
2023/06/28 04:14:21;;;;;;;6.80;3.25;;;16.10;99.90;;;;;;5034570;28;20033;-55
2023/06/28 04:16:47;;;;;;;9.00;3.03;;;16.10;99.90;;;;;;5033554;28;20484;-55
2023/06/28 04:19:12;;;;;;;9.73;3.53;;;16.10;99.90;;;;;;5034277;28;20038;-58
2023/06/28 04:21:38;;;;;;;7.38;3.05;;;16.10;99.90;;;;;;5016278;28;20033;-55
2023/06/28 04:24:04;;;;;;;5.82;2.92;;;16.10;99.90;;;;;;5014525;28;20033;-55
2023/06/28 04:26:30;;;;;;;7.32;3.58;;;16.10;99.90;;;;;;5014791;28;20462;-53
2023/06/28 04:28:55;;;;;;;8.45;2.60;;;16.10;99.90;;;;;;5014479;28;20025;-55
2023/06/28 04:31:21;;;;;;;5.85;3.20;;;16.10;99.90;;;;;;5014597;28;20022;-55
2023/06/28 04:33:46;;;;;;;11.13;3.60;;;16.10;99.90;;;;;;5014407;28;20030;-55
2023/06/28 04:36:12;;;;;;;6.90;3.38;;;16.20;99.90;;;;;;5013067;28;20024;-57
2023/06/28 04:38:39;;;;;;;7.32;2.88;;;16.20;99.90;;;;;;5014192;28;20105;-55
2023/06/28 04:41:05;;;;;;;9.27;3.65;;;16.20;99.90;;;;;;5014105;28;20068;-56
2023/06/28 04:43:38;;;;;;;6.70;3.40;;;16.20;99.90;;;;;;5014107;28;20087;-56
2023/06/28 04:46:04;;;;;;;10.48;3.58;;;16.20;99.90;;;;;;5014405;28;20501;-55
2023/06/28 04:48:29;;;;;;;8.57;3.20;;;16.20;99.90;;;;;;5013839;28;20022;-56
2023/06/28 04:50:55;;;;;;;4.75;3.22;;;16.20;99.90;;;;;;5013282;28;20034;-57
2023/06/28 04:53:21;;;;;;;9.05;3.28;;;16.20;99.90;;;;;;5012831;28;20451;-55
2023/06/28 04:55:47;;;;;;;8.85;3.50;;;16.30;99.90;;;;;;5013213;28;20022;-55
2023/06/28 04:58:13;;;;;;;10.57;4.00;;;16.30;99.90;;;;;;5016518;28;20025;-55
2023/06/28 05:00:39;;;;;;;5.32;3.20;;;16.30;99.90;;;;;;5033716;28;20116;-55
2023/06/28 05:03:05;;;;;;;7.70;3.33;;;16.30;99.90;;;;;;5023484;28;20014;-55
2023/06/28 05:05:30;;;;;;;8.73;3.72;;;16.30;99.90;;;;;;5013775;28;20050;-54
2023/06/28 05:07:59;;;;;;;8.77;3.80;;;16.30;99.90;;;;;;5013777;28;20030;-55
2023/06/28 05:10:25;;;;;;;15.90;4.13;;;16.30;99.90;;;;;;5013961;28;20030;-54
2023/06/28 05:12:51;;;;;;;5.97;4.03;;;16.30;99.90;;;;;;5013485;28;20072;-55
2023/06/28 05:15:20;;;;;;;9.50;3.67;;;16.30;99.90;;;;;;5024450;28;20374;-56
2023/06/28 05:17:46;;;;;;;18.83;4.53;;;16.30;99.90;;;;;;5033063;28;20414;-55
2023/06/28 05:20:12;;;;;;;7.75;3.95;;;16.30;99.90;;;;;;5033451;28;20021;-56
2023/06/28 05:22:42;;;;;;;9.57;3.58;;;16.30;99.90;;;;;;5033208;28;20071;-56
2023/06/28 05:25:08;;;;;;;13.00;4.60;;;16.30;99.90;;;;;;5033106;28;20079;-56
2023/06/28 05:27:33;;;;;;;8.10;3.80;;;16.30;99.90;;;;;;5032027;28;20553;-56
2023/06/28 05:29:59;;;;;;;9.13;4.00;;;16.30;99.90;;;;;;5013305;28;20035;-57
2023/06/28 05:32:25;;;;;;;8.10;3.50;;;16.40;99.90;;;;;;5013431;28;20104;-57
2023/06/28 05:34:50;;;;;;;11.52;4.18;;;16.30;99.90;;;;;;5012487;28;20022;-56
2023/06/28 05:37:16;;;;;;;9.00;3.80;;;16.30;99.90;;;;;;5023634;28;20017;-57
2023/06/28 05:39:42;;;;;;;9.85;4.00;;;16.30;99.90;;;;;;5031436;28;20053;-56
2023/06/28 05:42:07;;;;;;;9.57;3.75;;;16.30;99.90;;;;;;5030235;28;20112;-57
2023/06/28 05:44:33;;;;;;;12.65;3.75;;;16.30;99.90;;;;;;5031702;28;20021;-56
2023/06/28 05:46:59;;;;;;;11.20;5.05;;;16.30;99.90;;;;;;5005072;28;20025;-55
2023/06/28 05:49:24;;;;;;;8.15;3.38;;;16.40;99.90;;;;;;5013355;28;20022;-56
2023/06/28 05:51:50;;;;;;;9.05;5.22;;;16.40;99.90;;;;;;5013306;28;20018;-55
2023/06/28 05:54:16;;;;;;;9.63;5.13;;;16.40;99.90;;;;;;5013079;28;20097;-56
2023/06/28 05:56:42;;;;;;;13.88;4.53;;;16.40;99.90;;;;;;5013142;28;20442;-55
2023/06/28 05:59:08;;;;;;;11.73;4.10;;;16.40;99.90;;;;;;5012970;28;20068;-55
2023/06/28 06:01:33;;;;;;;13.82;4.85;;;16.40;99.90;;;;;;5012687;28;20030;-56
2023/06/28 06:03:59;;;;;;;12.50;3.97;;;16.40;99.90;;;;;;5013004;28;20414;-56
2023/06/28 06:06:25;;;;;;;13.88;5.47;;;16.50;99.90;;;;;;5013213;28;20018;-54
2023/06/28 06:08:50;;;;;;;13.50;4.90;;;16.50;99.90;;;;;;5012905;28;20105;-55
2023/06/28 06:11:16;;;;;;;11.60;4.28;;;16.50;99.90;;;;;;5012852;28;20038;-59
2023/06/28 06:13:42;;;;;;;11.13;4.90;;;16.60;99.90;;;;;;5012895;28;20018;-57
2023/06/28 06:16:07;;;;;;;12.75;5.50;;;16.50;99.90;;;;;;5012854;28;20490;-56
2023/06/28 06:18:36;;;;;;;11.23;4.95;;;16.60;99.90;;;;;;5012720;28;20176;-57
2023/06/28 06:21:02;;;;;;;9.13;4.57;;;16.60;99.90;;;;;;5011001;28;20062;-57
2023/06/28 06:23:27;;;;;;;16.23;5.22;;;16.60;99.90;;;;;;5019214;28;20095;-56
2023/06/28 06:25:53;;;;;;;7.50;4.35;;;16.60;99.90;;;;;;5032799;28;20489;-57
2023/06/28 06:28:18;;;;;;;10.15;5.07;;;16.70;99.90;;;;;;5019263;28;20104;-58
2023/06/28 06:30:44;;;;;;;16.15;6.22;;;16.70;99.90;;;;;;5012695;28;20505;-56
2023/06/28 06:33:10;;;;;;;9.30;4.10;;;16.70;99.90;;;;;;5019334;28;20028;-54
2023/06/28 06:35:35;;;;;;;12.18;4.35;;;16.70;99.90;;;;;;5032129;28;20033;-57
2023/06/28 06:38:01;;;;;;;11.98;5.22;;;16.70;99.90;;;;;;5032387;28;20025;-57
2023/06/28 06:40:26;;;;;;;15.45;5.97;;;16.70;99.90;;;;;;5024689;28;20041;-57
2023/06/28 06:42:52;;;;;;;12.70;4.75;;;16.70;99.90;;;;;;5010799;28;20502;-55
2023/06/28 06:45:19;;;;;;;7.63;4.40;;;16.70;99.90;;;;;;5023275;28;20025;-56
2023/06/28 06:47:45;;;;;;;11.10;4.57;;;16.70;99.90;;;;;;5032338;28;20453;-56
2023/06/28 06:50:11;;;;;;;7.93;4.60;;;16.70;99.90;;;;;;5013352;28;20316;-56
2023/06/28 06:52:40;;;;;;;12.07;5.47;;;16.70;99.90;;;;;;5012560;28;20050;-56
2023/06/28 06:55:06;;;;;;;8.25;4.22;;;16.70;99.90;;;;;;5011103;28;20072;-57
2023/06/28 06:57:31;;;;;;;8.10;4.28;;;16.70;99.90;;;;;;5012379;28;20018;-60
2023/06/28 06:59:57;;;;;;;11.85;4.97;;;16.80;99.90;;;;;;5011208;28;20075;-57
2023/06/28 07:02:23;;;;;;;12.45;5.10;;;16.70;99.90;;;;;;5012416;28;20544;-56
2023/06/28 07:04:49;;;;;;;13.80;4.68;;;16.80;99.90;;;;;;5010840;28;20029;-57
2023/06/28 07:07:15;;;;;;;12.40;4.40;;;16.80;99.90;;;;;;5012442;28;20018;-58
2023/06/28 07:09:41;;;;;;;9.95;5.00;;;16.80;99.90;;;;;;5012122;28;20530;-54
2023/06/28 07:12:07;;;;;;;10.32;5.40;;;16.80;99.90;;;;;;5011742;28;20367;-56
2023/06/28 07:14:33;;;;;;;10.40;4.30;;;16.90;99.90;;;;;;5031476;28;20087;-56
2023/06/28 07:16:58;;;;;;;8.13;4.82;;;16.90;99.90;;;;;;5035602;28;20022;-56
2023/06/28 07:19:24;;;;;;;14.30;5.18;;;16.90;99.90;;;;;;5035457;28;20449;-51
2023/06/28 07:21:49;;;;;;;12.85;4.88;;;16.90;99.90;;;;;;5035499;28;20474;-52
2023/06/28 07:24:15;;;;;;;12.88;5.10;;;16.90;99.90;;;;;;5035440;28;20025;-51
2023/06/28 07:26:41;;;;;;;16.65;5.57;;;16.90;99.90;;;;;;5035431;28;20029;-51
2023/06/28 07:29:06;;;;;;;16.35;4.68;;;16.90;99.90;;;;;;5035371;28;20477;-51
2023/06/28 07:31:32;;;;;;;10.82;4.55;;;16.90;99.90;;;;;;5035572;28;20022;-51
2023/06/28 07:33:58;;;;;;;8.70;4.90;;;17.00;99.90;;;;;;5033926;28;20009;-53
2023/06/28 07:36:24;;;;;;;12.07;4.78;;;17.10;99.90;;;;;;5033348;28;20179;-51
2023/06/28 07:38:50;;;;;;;7.90;4.55;;;17.10;99.90;;;;;;5033984;28;20029;-51
2023/06/28 07:41:17;;;;;;;9.70;4.47;;;17.10;99.90;;;;;;5011669;28;20502;-52
2023/06/28 07:43:42;;;;;;;13.45;5.35;;;17.10;99.90;;;;;;5014274;28;20033;-56
2023/06/28 07:46:08;;;;;;;18.75;4.72;;;17.10;99.90;;;;;;5010074;28;20386;-51
2023/06/28 07:48:34;;;;;;;8.38;4.72;;;17.20;99.90;;;;;;5013324;28;20034;-52
2023/06/28 07:50:59;;;;;;;6.93;4.47;;;17.20;99.90;;;;;;5014224;28;20391;-54
2023/06/28 07:53:25;;;;;;;13.88;4.40;;;17.20;99.90;;;;;;5013117;28;20018;-50
2023/06/28 07:55:51;;;;;;;14.10;4.40;;;17.20;99.90;;;;;;5014229;28;20084;-48
2023/06/28 07:58:16;;;;;;;17.48;5.53;;;17.20;99.90;;;;;;5014062;28;20030;-49
2023/06/28 08:00:42;;;;;;;10.75;4.57;;;17.30;99.90;;;;;;5013701;28;20033;-51
2023/06/28 08:03:08;;;;;;;10.80;4.45;;;17.30;99.90;;;;;;5033406;28;20040;-48
2023/06/28 08:05:34;;;;;;;11.52;5.00;;;17.30;99.90;;;;;;5027519;28;20057;-52
2023/06/28 08:07:59;;;;;;;8.60;4.72;;;17.40;99.90;;;;;;5014645;28;20506;-51
2023/06/28 08:10:25;;;;;;;6.75;4.25;;;17.40;99.90;;;;;;5014721;28;20022;-52
2023/06/28 08:12:51;;;;;;;7.32;4.50;;;17.40;99.90;;;;;;5014818;28;20026;-48
2023/06/28 08:15:18;;;;;;;10.40;4.05;;;17.40;99.90;;;;;;5014717;28;20080;-49
2023/06/28 08:17:44;;;;;;;8.80;4.40;;;17.40;99.90;;;;;;5013389;28;20457;-48
2023/06/28 08:20:10;;;;;;;11.77;4.43;;;17.50;99.90;;;;;;5012353;28;20096;-48
2023/06/28 08:22:35;;;;;;;11.50;5.43;;;17.50;99.90;;;;;;5012042;28;20026;-57
2023/06/28 08:25:01;;;;;;;14.13;4.55;;;17.60;99.90;;;;;;5014302;28;20018;-58
2023/06/28 08:27:27;;;;;;;15.35;5.00;;;17.60;99.90;;;;;;5011350;28;20049;-59
2023/06/28 08:29:52;;;;;;;11.10;4.78;;;17.70;99.90;;;;;;5013372;28;20474;-58
2023/06/28 08:32:18;;;;;;;11.05;4.18;;;17.80;99.90;;;;;;5012338;28;20037;-56
2023/06/28 08:34:44;;;;;;;13.52;5.15;;;17.80;99.90;;;;;;5012216;28;20022;-57
2023/06/28 08:37:10;;;;;;;13.40;4.70;;;17.80;99.90;;;;;;5014081;28;20406;-57
2023/06/28 08:39:38;;;;;;;12.05;4.68;;;17.80;99.90;;;;;;5011595;28;20471;-58
2023/06/28 08:42:04;;;;;;;12.00;4.88;;;17.80;99.90;;;;;;5013137;28;20109;-56
2023/06/28 08:44:32;;;;;;;10.80;4.75;;;17.90;99.90;;;;;;5013657;28;20025;-58
2023/06/28 08:47:01;;;;;;;9.63;4.28;;;17.90;99.90;;;;;;5013566;28;20478;-58
2023/06/28 08:49:28;;;;;;;7.13;3.90;;;17.90;99.90;;;;;;5012509;28;20030;-54
2023/06/28 08:51:57;;;;;;;12.23;4.43;;;17.90;99.90;;;;;;5013307;28;20033;-45
2023/06/28 08:54:28;;;;;;;13.10;5.07;;;17.90;99.90;;;;;;5014023;28;20490;-51
2023/06/28 08:56:57;;;;;;;8.13;3.65;;;17.90;99.90;;;;;;5013057;28;20493;-54
2023/06/28 08:59:23;;;;;;;13.70;4.85;;;18.00;99.90;;;;;;4999696;28;20542;-48
2023/06/28 09:01:54;;;;;;;13.48;4.22;;;18.00;99.90;;;;;;5012237;28;20113;-49
2023/06/28 09:04:25;;;;;;;16.40;5.13;;;18.10;99.90;;;;;;5012596;28;20030;-50
2023/06/28 09:06:51;;;;;;;10.52;4.18;;;18.30;99.90;;;;;;5012466;28;20032;-48
2023/06/28 09:09:18;;;;;;;10.30;4.88;;;18.30;99.90;;;;;;5012192;28;20037;-51
2023/06/28 09:11:44;;;;;;;8.80;4.43;;;18.40;99.90;;;;;;5010841;28;20064;-51
2023/06/28 09:14:10;;;;;;;13.07;4.85;;;18.50;99.90;;;;;;5012924;28;20264;-51
2023/06/28 09:16:36;;;;;;;8.20;4.32;;;18.60;99.90;;;;;;5012200;28;20034;-45
2023/06/28 09:19:01;;;;;;;10.57;4.80;;;18.70;99.90;;;;;;5013426;28;20046;-50
2023/06/28 09:21:28;;;;;;;15.10;5.22;;;18.60;99.90;;;;;;5013472;28;20434;-47
2023/06/28 09:23:54;;;;;;;11.80;5.25;;;18.70;99.90;;;;;;5013340;28;20025;-52
2023/06/28 09:26:42;;;;;;;10.98;4.07;;;18.70;99.90;;;;;;5013465;28;20060;-52
2023/06/28 09:29:11;;;;;;;12.25;5.00;;;18.70;99.90;;;;;;5013795;28;20026;-51
2023/06/28 09:31:47;;;;;;;13.93;5.28;;;18.70;99.90;;;;;;5013602;28;20022;-52
2023/06/28 09:34:12;;;;;;;9.23;5.35;;;18.70;99.90;;;;;;5013249;28;20101;-53
2023/06/28 09:36:38;;;;;;;18.60;5.13;;;18.80;99.90;;;;;;5013096;28;20109;-51
2023/06/28 09:39:09;;;;;;;8.88;4.78;;;18.80;99.90;;;;;;5013356;28;20513;-49
2023/06/28 09:41:42;;;;;;;10.32;4.43;;;18.90;99.90;;;;;;5013295;28;20100;-49
2023/06/28 09:44:09;;;;;;;13.52;4.90;;;19.00;99.90;;;;;;5013630;28;20026;-49
2023/06/28 09:46:35;;;;;;;10.50;5.43;;;19.20;99.90;;;;;;5013316;28;20037;-55
2023/06/28 09:49:01;;;;;;;12.65;5.45;;;19.40;99.90;;;;;;5013213;28;20098;-54
2023/06/28 09:51:30;;;;;;;10.48;4.88;;;19.60;99.90;;;;;;5013148;28;20482;-49
2023/06/28 09:53:58;;;;;;;11.35;5.70;;;19.70;99.90;;;;;;5013091;28;20475;-53
2023/06/28 09:56:35;;;;;;;17.00;6.18;;;20.00;99.90;;;;;;5013025;28;20480;-50
2023/06/28 09:59:07;;;;;;;15.87;6.20;;;20.20;99.90;;;;;;5013168;28;20486;-52
2023/06/28 10:01:42;;;;;;;11.73;5.22;;;20.30;99.90;;;;;;5012897;28;20406;-58
2023/06/28 10:04:09;;;;;;;10.15;5.10;;;20.40;99.90;;;;;;5013030;28;20079;-54
2023/06/28 10:06:35;;;;;;;12.45;5.47;;;20.50;99.90;;;;;;5013031;28;20026;-51
2023/06/28 10:09:02;;;;;;;13.45;5.93;;;20.60;99.90;;;;;;5013278;28;20022;-53
2023/06/28 10:11:31;;;;;;;15.43;6.25;;;20.60;99.90;;;;;;5012944;28;20028;-55
2023/06/28 10:13:58;;;;;;;14.75;6.15;;;20.60;99.90;;;;;;5012935;28;20030;-51
2023/06/28 10:16:26;;;;;;;13.13;6.05;;;20.50;99.90;;;;;;5012924;28;20014;-53
2023/06/28 10:18:52;;;;;;;15.27;6.00;;;20.40;99.90;;;;;;5012638;28;20038;-52
2023/06/28 10:21:18;;;;;;;15.77;6.30;;;20.40;99.90;;;;;;5012909;28;20433;-54
2023/06/28 10:23:45;;;;;;;12.80;6.55;;;20.50;99.90;;;;;;5012738;28;20022;-55
2023/06/28 10:26:13;;;;;;;22.92;6.68;;;20.50;99.90;;;;;;5011506;28;20560;-53
2023/06/28 10:28:40;;;;;;;10.98;6.35;;;20.50;99.90;;;;;;5012717;28;20030;-46
2023/06/28 10:31:07;;;;;;;14.73;6.55;;;20.70;99.90;;;;;;5012686;28;20148;-50
2023/06/28 10:33:36;;;;;;;19.77;8.93;;;20.70;99.90;;;;;;5012735;28;20105;-53
2023/06/28 10:36:03;;;;;;;14.88;7.47;;;20.70;99.90;;;;;;5012740;28;20014;-53
2023/06/28 10:38:43;;;;;;;16.40;6.72;;;20.80;99.90;;;;;;5012963;28;20026;-50
2023/06/28 10:41:16;;;;;;;20.33;7.80;;;20.80;99.90;;;;;;5012702;28;20037;-52
2023/06/28 10:43:43;;;;;;;13.00;6.88;;;20.90;99.90;;;;;;5012729;28;20479;-47
2023/06/28 10:46:25;;;;;;;13.70;7.33;;;21.20;99.90;;;;;;5013184;28;20033;-54
2023/06/28 10:48:56;;;;;;;16.70;7.13;;;21.50;99.90;;;;;;5016295;28;20276;-56
2023/06/28 10:51:25;;;;;;;13.63;6.95;;;21.90;99.90;;;;;;5016242;28;20022;-51
2023/06/28 10:53:53;;;;;;;19.25;7.28;;;22.20;99.90;;;;;;5031421;28;20037;-49
2023/06/28 10:56:19;;;;;;;;;;;22.50;99.90;;;;;;5016646;28;20051;-54
2023/06/28 10:58:47;;;;;;;13.68;7.03;;;22.60;99.90;;;;;;5016113;28;19906;-53
2023/06/28 11:01:37;;;;;;;19.08;7.78;;;22.60;99.90;;;;;;5016113;28;20033;-55
2023/06/28 11:04:26;;;;;;;18.45;8.02;;;22.50;99.90;;;;;;5016078;28;20030;-52
2023/06/28 11:07:16;;;;;;;19.13;7.95;;;22.60;99.90;;;;;;5016050;28;20026;-54
2023/06/28 11:10:16;;;;;;;19.27;8.52;;;22.80;99.90;;;;;;5014719;28;20483;-49
2023/06/28 11:12:50;;;;;;;20.42;8.25;;;23.00;99.90;;;;;;5016176;28;20540;-54
2023/06/28 11:15:26;;;;;;;18.92;8.30;;;23.20;99.90;;;;;;5015926;28;20060;-57
2023/06/28 11:17:52;;;;;;;13.50;7.10;;;23.40;99.90;;;;;;5015677;28;20049;-53
2023/06/28 11:20:18;;;;;;;16.67;6.85;;;23.60;99.90;;;;;;5016058;28;20466;-54
2023/06/28 11:22:52;;;;;;;22.48;8.88;;;23.60;99.90;;;;;;5015782;28;20487;-54
2023/06/28 11:25:28;;;;;;;18.23;8.40;;;23.60;99.90;;;;;;5015525;28;20087;-52
2023/06/28 11:27:56;;;;;;;22.77;9.57;;;23.70;99.90;;;;;;5015708;28;20467;-57
2023/06/28 11:30:47;;;;;;;19.55;8.18;;;23.80;99.90;;;;;;5015832;28;20029;-54
2023/06/28 11:33:14;;;;;;;20.30;9.25;;;23.70;99.90;;;;;;5015565;28;20079;-53
2023/06/28 11:35:40;;;;;;;13.65;7.85;;;23.70;99.90;;;;;;5015526;28;20083;-55
2023/06/28 11:38:07;;;;;;;17.98;8.38;;;23.70;99.90;;;;;;5015459;28;20018;-54
2023/06/28 11:40:33;;;;;;;13.30;8.10;;;23.80;99.90;;;;;;5015688;28;20041;-52
2023/06/28 11:42:59;;;;;;;15.50;8.30;;;23.70;99.90;;;;;;5015594;28;20065;-56
2023/06/28 11:45:27;;;;;;;16.33;8.88;;;23.70;99.90;;;;;;5015647;28;20054;-56
2023/06/28 11:47:53;;;;;;;12.10;7.13;;;23.60;99.90;;;;;;5015276;28;20095;-54
2023/06/28 11:50:19;;;;;;;20.10;8.75;;;23.70;99.90;;;;;;5015161;28;20033;-55
2023/06/28 11:52:50;;;;;;;17.90;8.40;;;23.70;99.90;;;;;;5015161;28;20026;-55
2023/06/28 11:55:15;;;;;;;20.42;8.23;;;23.60;99.90;;;;;;5015348;28;20471;-54
2023/06/28 11:57:46;;;;;;;20.45;8.73;;;23.40;99.90;;;;;;5014853;28;20084;-55
2023/06/28 12:00:16;;;;;;;22.98;8.40;;;23.20;99.90;;;;;;5015196;28;20064;-56
2023/06/28 12:02:52;;;;;;;18.17;9.43;;;23.00;99.90;;;;;;5015332;28;20429;-52
2023/06/28 12:05:18;;;;;;;21.20;9.23;;;22.80;99.90;;;;;;5015010;28;20037;-55
2023/06/28 12:07:47;;;;;;;16.50;8.05;;;22.60;99.90;;;;;;5015190;28;20017;-54
2023/06/28 12:10:14;;;;;;;16.80;7.90;;;22.50;99.90;;;;;;5015049;28;20420;-52
2023/06/28 12:12:41;;;;;;;20.05;7.65;;;22.40;99.90;;;;;;5014816;28;20022;-55
2023/06/28 12:15:12;;;;;;;14.90;8.13;;;22.30;99.90;;;;;;5015027;28;20129;-55
2023/06/28 12:17:39;;;;;;;14.77;7.07;;;22.20;99.90;;;;;;5014591;28;20383;-49
2023/06/28 12:20:05;;;;;;;17.67;8.77;;;22.10;99.90;;;;;;5014591;28;20069;-57
2023/06/28 12:22:43;;;;;;;22.83;9.03;;;22.10;99.90;;;;;;5014602;28;20022;-55
2023/06/28 12:25:09;;;;;;;14.98;8.23;;;22.10;99.90;;;;;;5014416;28;20319;-54
2023/06/28 12:27:36;;;;;;;14.05;7.60;;;22.10;99.90;;;;;;5014421;28;20022;-53
2023/06/28 12:30:11;;;;;;;22.00;10.10;;;22.10;99.90;;;;;;5014732;28;20025;-57
2023/06/28 12:32:43;;;;;;;22.63;9.20;;;22.00;99.90;;;;;;5014398;28;20030;-54
2023/06/28 12:35:21;;;;;;;24.92;10.27;;;22.00;99.90;;;;;;5014427;28;20046;-52
2023/06/28 12:37:54;;;;;;;13.10;8.40;;;22.10;99.90;;;;;;5014306;28;20069;-54
2023/06/28 12:40:20;;;;;;;17.45;9.07;;;22.00;99.90;;;;;;5014171;28;20050;-54
2023/06/28 12:42:45;;;;;;;15.90;9.88;;;22.00;99.90;;;;;;5012943;28;20116;-54